createdAt,value
2016-08-05T00:01:19.569Z,16.4
2016-08-05T00:16:19.584Z,16.4
2016-08-05T00:31:19.588Z,16.4
2016-08-05T00:46:24.234Z,16.4
2016-08-05T01:01:19.624Z,16.4
2016-08-05T01:16:19.624Z,16.5
2016-08-05T01:31:24.669Z,16.5
2016-08-05T01:46:19.637Z,16.3
2016-08-05T02:01:19.693Z,16.3
2016-08-05T02:16:24.601Z,16.2
2016-08-05T02:31:19.668Z,16.1
2016-08-05T02:46:21.677Z,16
2016-08-05T03:01:21.724Z,15.8
2016-08-05T03:16:31.087Z,15.7
2016-08-05T03:31:19.699Z,15.6
2016-08-05T03:46:19.708Z,15.6
2016-08-05T04:01:24.730Z,15.6
2016-08-05T04:16:19.730Z,15.4
2016-08-05T04:31:19.731Z,15.4
2016-08-05T04:46:38.566Z,15.4
2016-08-05T05:01:19.740Z,15.5
2016-08-05T05:16:24.817Z,15.5
2016-08-05T05:31:25.956Z,15.6
2016-08-05T05:46:26.697Z,15.8
2016-08-05T06:01:24.359Z,16
2016-08-05T06:16:24.434Z,16.2
2016-08-05T06:31:24.379Z,16.4
2016-08-05T06:46:26.098Z,16.6
2016-08-05T07:01:21.802Z,16.8
2016-08-05T07:16:23.838Z,17
2016-08-05T07:31:24.437Z,17.4
2016-08-05T07:46:19.835Z,17.8
2016-08-05T08:01:19.846Z,18.4
2016-08-05T08:16:21.940Z,18.7
2016-08-05T08:31:23.999Z,19.4
2016-08-05T08:46:21.947Z,19.3
2016-08-05T09:01:23.958Z,19.8
2016-08-05T09:16:19.872Z,19.7
2016-08-05T09:31:19.866Z,20.3
2016-08-05T09:46:19.919Z,19.4
2016-08-05T10:01:30.204Z,19.7
2016-08-05T10:16:28.008Z,20.5
2016-08-05T10:31:31.060Z,20.8
2016-08-05T10:46:21.953Z,20.8
2016-08-05T11:01:26.159Z,20.9
2016-08-05T11:16:26.136Z,21
2016-08-05T11:31:24.560Z,21.2
2016-08-05T11:46:28.710Z,21.3
2016-08-05T12:01:19.960Z,21.6
2016-08-05T12:16:19.958Z,20.9
2016-08-05T12:31:19.958Z,20.6
2016-08-05T12:46:28.610Z,20.8
2016-08-05T13:01:19.969Z,21.5
2016-08-05T13:16:19.980Z,22
2016-08-05T13:31:19.992Z,22.3
2016-08-05T13:46:24.600Z,22.5
2016-08-05T14:01:20.051Z,22.4
2016-08-05T14:16:20.019Z,22.4
2016-08-05T14:31:24.619Z,22.9
2016-08-05T14:46:20.037Z,22.8
2016-08-05T15:01:20.092Z,21.8
2016-08-05T15:16:20.065Z,20.3
2016-08-05T15:31:26.288Z,19.3
2016-08-05T15:46:32.315Z,18.7
2016-08-05T16:01:34.262Z,18.8
2016-08-05T16:16:26.309Z,18.9
2016-08-05T16:31:26.325Z,19.6
2016-08-05T16:46:26.335Z,20.5
2016-08-05T17:01:26.440Z,20.2
2016-08-05T17:16:25.143Z,20
2016-08-05T17:31:25.134Z,19.9
2016-08-05T17:46:24.797Z,19.6
2016-08-05T18:01:25.212Z,19.3
2016-08-05T18:16:24.792Z,18.8
2016-08-05T18:31:24.273Z,18.1
2016-08-05T18:46:22.207Z,17.8
2016-08-05T19:01:24.806Z,17.6
2016-08-05T19:16:24.827Z,17.5
2016-08-05T19:31:26.384Z,17.4
2016-08-05T19:46:33.128Z,17.4
2016-08-05T20:01:20.242Z,17.3
2016-08-05T20:16:24.839Z,17.3
2016-08-05T20:31:20.251Z,17.1
2016-08-05T20:46:20.304Z,17.1
2016-08-05T21:01:20.270Z,17.2
2016-08-05T21:16:20.298Z,17.2
2016-08-05T21:31:20.305Z,17.1
2016-08-05T21:46:20.353Z,17.1
2016-08-05T22:01:20.298Z,17
2016-08-05T22:16:20.307Z,16.8
2016-08-05T22:31:20.322Z,16.8
2016-08-05T22:46:24.989Z,16.9
2016-08-05T23:01:20.349Z,16.9
2016-08-05T23:16:20.340Z,16.8
2016-08-05T23:31:20.349Z,16.8
2016-08-05T23:46:33.124Z,16.7
